Aviation Digital Data Service (ADDS)

Output produced by TAFs form (1051 UTC 16 July 2018)
found at http://www.aviationweather.gov/adds/tafs/
 
METAR text: ZSOF 161000Z 14004MPS CAVOK 34/24 Q1004 NOSIG
Conditions at: ZSOF (HEFEI/XINGIAO , CN) observed 1000 UTC 16 July 2018
Temperature: 34.0°C (93°F)
Dewpoint: 24.0°C (75°F) [RH = 56%]
Pressure (altimeter): 29.65 inches Hg (1004.0 mb)
Winds: from the SE (140 degrees) at 9 MPH (8 knots; 4.2 m/s)
Visibility: 6 or more miles (10+ km)
Ceiling: ceiling and visibility are OK
Clouds: unknown
Weather: no significant weather observed at this time

Forecast for: ZSOF (HEFEI/XINGIAO , CN)
Text: TAF ZSOF 160901Z 1612/1712 15004MPS 5000 BR NSC TX34/1707Z TN26/1621Z
Forecast period: 1200 UTC 16 July 2018 to 1200 UTC 17 July 2018
Forecast type: FROM: standard forecast or significant change
Winds: from the SSE (150 degrees) at 9 MPH (8 knots; 4.2 m/s)
Visibility: 3 miles (5 km)
Clouds: not forecast
Weather: BR  (mist)